This is the latest recevied weather packets stored in our database for station/object AI5KP-13. If no packets are shown the sender has not sent any weather packets the latest 10 day(s).
| Time | Temp. | Humidity | Pressure | Rain* | Wind** | Luminosity | Snow |
|---|---|---|---|---|---|---|---|
| 1777062283 | 23.33° C | 73% | 1007.6 hPa | 0 mm | - | 239 W/m² | - |
| 1777061981 | 23.33° C | 74% | 1007.5 hPa | 0 mm | - | 225 W/m² | - |
| 1777061677 | 23.89° C | 70% | 1007.7 hPa | 0 mm | - | 265 W/m² | - |
| 1777061373 | 24.44° C | 68% | 1007.5 hPa | 0 mm | - | 258 W/m² | - |
| 1777061068 | 23.33° C | 72% | 1007.9 hPa | 0 mm | - | 303 W/m² | - |
| 1777060765 | 23.89° C | 71% | 1007.7 hPa | 0 mm | - | 297 W/m² | - |
| 1777060464 | 25° C | 68% | 1007.7 hPa | 0 mm | - | 285 W/m² | - |
| 1777060161 | 23.33° C | 73% | 1007.9 hPa | 0 mm | - | 379 W/m² | - |
| 1777059857 | 25.56° C | 66% | 1008 hPa | 0 mm | - | 334 W/m² | - |
| 1777059554 | 25° C | 70% | 1007.9 hPa | 0 mm | - | 560 W/m² | - |
| 1777059251 | 25.56° C | 66% | 1007.8 hPa | 0 mm | - | 383 W/m² | - |
| 1777058951 | 23.33° C | 72% | 1008 hPa | 0 mm | - | 303 W/m² | - |
| 1777058646 | 25° C | 70% | 1008 hPa | 0 mm | - | 334 W/m² | - |
| 1777058343 | 23.89° C | 68% | 1008 hPa | 0 mm | - | 349 W/m² | - |
| 1777058040 | 23.33° C | 70% | 1008 hPa | 0 mm | - | 313 W/m² | - |
| 1777057739 | 21.67° C | 74% | 1008.1 hPa | 0 mm | - | 348 W/m² | - |
| 1777057434 | 21.67° C | 77% | 1008.3 hPa | 0 mm | - | 327 W/m² | - |
| 1777057130 | 22.78° C | 73% | 1008.1 hPa | 0 mm | - | 387 W/m² | - |
| 1777056825 | 22.78° C | 73% | 1008.1 hPa | 0 mm | - | 310 W/m² | - |
| 1777056520 | 22.78° C | 71% | 1008.1 hPa | 0 mm | - | 382 W/m² | - |
| 1777056216 | 21.67° C | 76% | 1008.3 hPa | 0 mm | - | 366 W/m² | - |
| 1777055912 | 21.11° C | 79% | 1008.2 hPa | 0 mm | - | 428 W/m² | - |
| 1777055609 | 21.67° C | 79% | 1008.2 hPa | 0 mm | - | 464 W/m² | - |
| 1777055309 | 21.11° C | 80% | 1008.4 hPa | 0 mm | - | 340 W/m² | - |
| 1777055008 | 20.56° C | 81% | 1008.4 hPa | 0 mm | - | 294 W/m² | - |
* Rain latest hour (hover to see other rain measurements)
** Current wind speed in m/s (hover to see current wind gust speed)